Time;durP1;ratioP1;P1;durP2;ratioP2;P2;SDS_P1;SDS_P2;PMS_P1;PMS_P2;Temp;Humidity;BMP_temperature;BMP_pressure;BME280_temperature;BME280_humidity;BME280_pressure;Samples;Min_cycle;Max_cycle;Signal;HPM_P1;HPM_P2
2021/03/06 00:01:31;;;;;;;0.97;0.93;;;;;;;-1.89;69.94;102157.16;5071040;28;20580;-73
2021/03/06 00:03:56;;;;;;;0.47;0.23;;;;;;;-1.78;69.13;102153.19;5071324;28;20209;-73
2021/03/06 00:06:21;;;;;;;0.23;0.23;;;;;;;-1.48;67.72;102153.94;5070481;28;20182;-74
2021/03/06 00:08:47;;;;;;;0.00;0.00;;;;;;;-1.51;67.83;102157.00;5070851;28;20603;-74
2021/03/06 00:11:12;;;;;;;0.47;0.47;;;;;;;-1.48;68.10;102158.47;5070815;28;20179;-74
2021/03/06 00:13:37;;;;;;;0.10;0.10;;;;;;;-1.54;67.63;102166.25;5070863;28;20179;-74
2021/03/06 00:16:03;;;;;;;0.83;0.70;;;;;;;-1.50;67.47;102161.34;5070974;28;20182;-73
2021/03/06 00:18:29;;;;;;;0.43;0.43;;;;;;;-1.46;67.75;102167.13;5070477;28;20887;-74
2021/03/06 00:20:54;;;;;;;4.07;0.17;;;;;;;-1.53;67.75;102167.91;5070677;28;20228;-74
2021/03/06 00:23:19;;;;;;;0.00;0.00;;;;;;;-1.53;67.84;102170.59;5070628;28;20542;-73
2021/03/06 00:25:45;;;;;;;0.47;0.47;;;;;;;-1.42;67.38;102169.28;5070738;28;20181;-74
2021/03/06 00:28:10;;;;;;;0.43;0.43;;;;;;;-1.47;68.09;102168.16;5070467;28;20170;-73
2021/03/06 00:30:36;;;;;;;0.23;0.23;;;;;;;-1.58;67.68;102164.97;5070590;28;20676;-74
2021/03/06 00:33:02;;;;;;;0.00;0.00;;;;;;;-1.38;66.92;102167.88;5070756;28;20649;-73
2021/03/06 00:35:27;;;;;;;0.00;0.00;;;;;;;-1.47;66.96;102170.84;5069387;28;20196;-74
2021/03/06 00:37:53;;;;;;;0.40;0.40;;;;;;;-1.29;66.40;102164.06;5070088;28;20948;-74
2021/03/06 00:40:18;;;;;;;0.10;0.10;;;;;;;-1.35;66.33;102170.16;5070603;28;20174;-74
2021/03/06 00:42:43;;;;;;;0.13;0.13;;;;;;;-1.52;68.37;102174.09;5070511;28;20209;-74
2021/03/06 00:45:10;;;;;;;0.10;0.10;;;;;;;-1.70;69.11;102160.28;5070752;28;20223;-73
2021/03/06 00:47:37;;;;;;;0.00;0.00;;;;;;;-1.89;70.53;102167.88;5070543;28;20185;-74
2021/03/06 00:50:06;;;;;;;1.23;1.23;;;;;;;-1.84;69.13;102164.66;5070909;28;20797;-73
2021/03/06 00:52:31;;;;;;;0.00;0.00;;;;;;;-1.67;67.73;102170.63;5070553;28;20740;-73
2021/03/06 00:54:57;;;;;;;0.87;0.67;;;;;;;-1.48;67.29;102164.66;5070611;28;20417;-73
2021/03/06 00:57:22;;;;;;;1.10;1.00;;;;;;;-1.47;67.52;102165.47;5070161;28;20178;-74
2021/03/06 00:59:47;;;;;;;0.10;0.10;;;;;;;-1.36;66.86;102168.50;5069196;28;20202;-73
2021/03/06 01:02:12;;;;;;;0.10;0.10;;;;;;;-1.30;66.29;102162.41;5074374;28;20174;-73
2021/03/06 01:04:38;;;;;;;0.00;0.00;;;;;;;-1.50;67.89;102167.53;5074351;28;20236;-73
2021/03/06 01:07:03;;;;;;;0.03;0.03;;;;;;;-1.61;67.97;102168.00;5072959;28;20562;-73
2021/03/06 01:09:29;;;;;;;0.20;0.20;;;;;;;-1.58;68.56;102159.63;5074421;28;20265;-73
2021/03/06 01:11:54;;;;;;;0.97;0.67;;;;;;;-1.40;66.99;102158.38;5074458;28;20179;-73
2021/03/06 01:14:19;;;;;;;0.10;0.10;;;;;;;-1.50;67.99;102150.63;5074321;28;20645;-73
2021/03/06 01:16:45;;;;;;;0.00;0.00;;;;;;;-1.46;67.32;102149.22;5074007;28;20183;-73
2021/03/06 01:19:10;;;;;;;0.00;0.00;;;;;;;-1.25;65.79;102145.72;5073990;28;20230;-73
2021/03/06 01:21:35;;;;;;;0.97;0.97;;;;;;;-1.08;64.64;102143.63;5070995;28;20182;-73
2021/03/06 01:24:01;;;;;;;0.00;0.00;;;;;;;-1.00;64.14;102135.44;5065757;28;20265;-73
2021/03/06 01:26:26;;;;;;;0.63;0.63;;;;;;;-1.10;65.90;102137.63;5073671;28;20185;-73
2021/03/06 01:28:51;;;;;;;0.50;0.50;;;;;;;-1.29;66.07;102136.41;5073899;28;20179;-73
2021/03/06 01:31:17;;;;;;;0.50;0.50;;;;;;;-1.22;66.22;102137.28;5073989;28;20209;-73
2021/03/06 01:33:42;;;;;;;0.40;0.40;;;;;;;-1.27;66.18;102135.19;5073926;28;20258;-73
2021/03/06 01:36:07;;;;;;;0.23;0.23;;;;;;;-1.30;66.41;102134.75;5073485;28;20318;-73
2021/03/06 01:38:33;;;;;;;0.00;0.00;;;;;;;-1.27;66.40;102129.84;5073744;28;20205;-73
2021/03/06 01:40:58;;;;;;;0.00;0.00;;;;;;;-1.17;66.38;102132.19;5073716;28;20637;-73
2021/03/06 01:43:23;;;;;;;0.10;0.10;;;;;;;-1.07;65.41;102135.38;5073663;28;20654;-73
2021/03/06 01:45:49;;;;;;;0.10;0.10;;;;;;;-1.12;66.07;102134.31;5073699;28;20174;-73
2021/03/06 01:48:14;;;;;;;0.10;0.10;;;;;;;-1.23;67.05;102136.47;5073401;28;20182;-73
2021/03/06 01:50:42;;;;;;;3.83;1.30;;;;;;;-1.31;67.36;102131.22;5073461;28;20182;-73
2021/03/06 01:53:10;;;;;;;0.97;0.73;;;;;;;-1.42;68.46;102129.06;5073700;28;20603;-73
2021/03/06 01:55:38;;;;;;;0.10;0.10;;;;;;;-1.65;69.72;102129.22;5073792;28;20470;-73
2021/03/06 01:58:04;;;;;;;0.00;0.00;;;;;;;-1.63;69.21;102129.03;5073262;28;20499;-73
2021/03/06 02:00:30;;;;;;;0.00;0.00;;;;;;;-1.63;69.29;102129.03;5073440;28;20437;-73
2021/03/06 02:02:57;;;;;;;0.30;0.30;;;;;;;-1.77;69.85;102125.38;5073183;28;20876;-73
2021/03/06 02:05:22;;;;;;;0.17;0.17;;;;;;;-1.70;69.79;102123.59;5073523;28;20389;-73
2021/03/06 02:07:47;;;;;;;0.10;0.10;;;;;;;-1.63;70.00;102123.66;5073116;28;20774;-73
2021/03/06 02:10:16;;;;;;;0.00;0.00;;;;;;;-1.67;70.10;102127.75;5073975;28;20175;-73
2021/03/06 02:12:57;;;;;;;0.00;0.00;;;;;;;-1.66;70.25;102121.38;5071264;28;20231;-73
2021/03/06 02:15:41;;;;;;;0.27;0.27;;;;;;;-1.46;69.91;102114.38;5073397;28;20408;-73
2021/03/06 02:18:18;;;;;;;0.00;0.00;;;;;;;-1.42;69.70;102113.00;5072852;28;20852;-73
2021/03/06 02:20:53;;;;;;;0.43;0.43;;;;;;;-1.55;70.41;102112.84;5073052;28;20413;-73
2021/03/06 02:23:53;;;;;;;0.00;0.00;;;;;;;-1.44;70.18;102114.19;5073108;28;20495;-73
2021/03/06 02:26:31;;;;;;;0.00;0.00;;;;;;;-1.49;70.37;102112.06;5069600;28;20429;-73
2021/03/06 02:29:02;;;;;;;0.10;0.10;;;;;;;-1.44;70.78;102108.84;5072966;28;20413;-73
2021/03/06 02:31:31;;;;;;;1.03;1.03;;;;;;;-1.44;70.64;102106.16;5072889;28;20447;-73
2021/03/06 02:34:02;;;;;;;0.00;0.00;;;;;;;-1.48;70.98;102110.22;5072819;28;20417;-73
2021/03/06 02:36:31;;;;;;;0.00;0.00;;;;;;;-1.41;70.95;102114.66;5072363;28;20424;-73
2021/03/06 02:38:58;;;;;;;0.13;0.13;;;;;;;-1.41;70.88;102114.66;5072675;28;20571;-73
2021/03/06 02:41:25;;;;;;;0.00;0.00;;;;;;;-1.38;71.12;102108.91;5072775;28;20421;-73
2021/03/06 02:43:52;;;;;;;0.00;0.00;;;;;;;-1.32;71.19;102113.47;5072557;28;20405;-73
2021/03/06 02:46:22;;;;;;;0.20;0.20;;;;;;;-1.20;71.08;102114.63;5072408;28;20448;-73
2021/03/06 02:48:49;;;;;;;0.57;0.40;;;;;;;-1.30;70.98;102114.16;5072459;28;20954;-72
2021/03/06 02:51:14;;;;;;;0.00;0.00;;;;;;;-1.26;71.07;102117.25;5071350;28;20435;-73
2021/03/06 02:53:40;;;;;;;0.00;0.00;;;;;;;-1.27;71.37;102108.38;5072673;28;20409;-73
2021/03/06 02:56:05;;;;;;;0.10;0.10;;;;;;;-1.28;71.24;102108.59;5072358;28;20179;-73
2021/03/06 02:58:57;;;;;;;0.00;0.00;;;;;;;-1.27;70.84;102103.03;5072308;28;20198;-73
2021/03/06 03:01:43;;;;;;;0.10;0.10;;;;;;;-1.28;71.22;102111.25;5070918;28;20204;-73
2021/03/06 03:04:20;;;;;;;0.00;0.00;;;;;;;-1.23;70.92;102104.28;5072234;28;20425;-73
2021/03/06 03:06:48;;;;;;;0.00;0.00;;;;;;;-1.19;70.44;102112.78;5072152;28;20765;-73
2021/03/06 03:09:24;;;;;;;0.10;0.10;;;;;;;-1.21;70.70;102106.78;5072151;28;20515;-73
2021/03/06 03:12:05;;;;;;;0.37;0.37;;;;;;;-1.20;70.99;102103.91;5072188;28;20409;-72
2021/03/06 03:14:59;;;;;;;0.10;0.10;;;;;;;-1.15;70.03;102105.19;5072016;28;20470;-73
2021/03/06 03:17:27;;;;;;;0.40;0.40;;;;;;;-1.26;70.94;102112.72;5069412;28;20929;-73
2021/03/06 03:20:01;;;;;;;0.10;0.10;;;;;;;-1.32;70.88;102105.44;5071836;28;20776;-73
2021/03/06 03:22:30;;;;;;;0.00;0.00;;;;;;;-1.37;71.08;102112.41;5072040;28;20466;-73
2021/03/06 03:24:58;;;;;;;0.00;0.00;;;;;;;-1.42;71.11;102114.84;5070045;28;20432;-73
2021/03/06 03:27:25;;;;;;;0.10;0.10;;;;;;;-1.46;71.81;102116.22;5071030;28;20417;-73
2021/03/06 03:29:52;;;;;;;0.00;0.00;;;;;;;-1.43;71.57;102118.53;5071510;28;20555;-72
2021/03/06 03:32:20;;;;;;;0.00;0.00;;;;;;;-1.49;71.80;102125.47;5071907;28;20416;-72
2021/03/06 03:34:46;;;;;;;0.20;0.20;;;;;;;-1.52;71.34;102120.50;5070236;28;20428;-73
2021/03/06 03:37:12;;;;;;;0.00;0.00;;;;;;;-1.55;71.68;102115.53;5071432;28;20478;-73
2021/03/06 03:39:39;;;;;;;0.63;0.50;;;;;;;-1.56;71.72;102112.03;5071431;28;20992;-73
2021/03/06 03:42:06;;;;;;;0.40;0.40;;;;;;;-1.56;71.65;102111.19;5071419;28;20239;-73
2021/03/06 03:44:34;;;;;;;0.10;0.03;;;;;;;-1.62;71.67;102119.97;5071358;28;20899;-73
2021/03/06 03:46:59;;;;;;;0.00;0.00;;;;;;;-1.65;71.92;102123.03;5071387;28;20511;-73
2021/03/06 03:49:25;;;;;;;0.07;0.07;;;;;;;-1.64;72.12;102127.38;5071575;28;20425;-73
2021/03/06 03:51:52;;;;;;;0.00;0.00;;;;;;;-1.68;72.55;102123.41;5071527;28;20502;-74
2021/03/06 03:54:18;;;;;;;1.60;1.60;;;;;;;-1.76;72.15;102119.00;5071475;28;20649;-73
2021/03/06 03:56:44;;;;;;;0.57;0.57;;;;;;;-1.77;72.15;102128.03;5071048;28;20425;-73
2021/03/06 03:59:09;;;;;;;0.43;0.43;;;;;;;-1.83;72.56;102118.94;5071190;28;20281;-73
2021/03/06 04:01:42;;;;;;;2.03;1.93;;;;;;;-1.84;72.88;102129.84;5071139;28;20206;-73
2021/03/06 04:04:17;;;;;;;0.57;0.30;;;;;;;-1.86;73.07;102129.19;5069774;28;20658;-73
2021/03/06 04:06:43;;;;;;;0.77;0.63;;;;;;;-1.86;73.42;102130.03;5070941;28;20416;-72
2021/03/06 04:09:08;;;;;;;0.67;0.67;;;;;;;-1.87;73.57;102124.84;5071662;28;20427;-72
2021/03/06 04:11:33;;;;;;;0.00;0.00;;;;;;;-1.83;73.48;102139.53;5071091;28;20615;-72
2021/03/06 04:13:58;;;;;;;0.00;0.00;;;;;;;-1.80;73.87;102129.25;5071321;28;20261;-73
2021/03/06 04:16:24;;;;;;;0.37;0.37;;;;;;;-1.78;74.13;102126.38;5070788;28;20170;-72
2021/03/06 04:18:49;;;;;;;0.33;0.33;;;;;;;-1.75;73.94;102126.00;5069597;28;20587;-73
2021/03/06 04:21:14;;;;;;;0.20;0.20;;;;;;;-1.65;73.77;102136.44;5069690;28;20277;-73
2021/03/06 04:23:40;;;;;;;0.00;0.00;;;;;;;-1.57;73.91;102134.47;5071130;28;20209;-73
2021/03/06 04:26:05;;;;;;;1.80;1.47;;;;;;;-1.58;73.88;102138.19;5070809;28;20507;-73
2021/03/06 04:28:30;;;;;;;0.13;0.13;;;;;;;-1.55;73.88;102135.13;5070972;28;20167;-73
2021/03/06 04:30:56;;;;;;;0.17;0.17;;;;;;;-1.55;74.59;102128.94;5071008;28;20175;-73
2021/03/06 04:33:21;;;;;;;0.03;0.03;;;;;;;-1.54;74.83;102133.25;5071008;28;20257;-73
2021/03/06 04:35:46;;;;;;;0.30;0.30;;;;;;;-1.45;75.03;102133.97;5070641;28;20175;-73
2021/03/06 04:38:11;;;;;;;0.10;0.10;;;;;;;-1.50;74.82;102131.84;5070554;28;20202;-73
2021/03/06 04:40:37;;;;;;;0.23;0.23;;;;;;;-1.51;75.03;102138.25;5070688;28;20646;-73
2021/03/06 04:43:02;;;;;;;0.30;0.30;;;;;;;-1.53;75.09;102130.38;5070787;28;20225;-72
2021/03/06 04:45:27;;;;;;;3.13;0.90;;;;;;;-1.52;75.65;102139.25;5069492;28;20251;-72
2021/03/06 04:47:55;;;;;;;0.20;0.20;;;;;;;-1.54;75.32;102146.66;5070804;28;20261;-73
2021/03/06 04:50:20;;;;;;;0.00;0.00;;;;;;;-1.44;75.65;102143.69;5070889;28;20232;-73
2021/03/06 04:52:45;;;;;;;0.13;0.13;;;;;;;-1.42;75.99;102142.47;5070961;28;20413;-73
2021/03/06 04:55:11;;;;;;;0.53;0.43;;;;;;;-1.43;75.73;102142.66;5071063;28;20170;-73
2021/03/06 04:57:36;;;;;;;0.00;0.00;;;;;;;-1.43;76.18;102146.19;5070471;28;20185;-73
2021/03/06 05:00:06;;;;;;;0.20;0.20;;;;;;;-1.45;76.49;102142.00;5070494;28;20167;-72
2021/03/06 05:02:33;;;;;;;0.47;0.47;;;;;;;-1.38;76.82;102141.06;5070826;28;20266;-73
2021/03/06 05:04:59;;;;;;;0.13;0.13;;;;;;;-1.34;76.78;102142.34;5070725;28;20478;-73
2021/03/06 05:07:24;;;;;;;6.67;0.40;;;;;;;-1.28;77.07;102135.41;5070278;28;20413;-73
2021/03/06 05:09:49;;;;;;;0.30;0.20;;;;;;;-1.32;77.07;102132.25;5070546;28;20181;-73
2021/03/06 05:12:15;;;;;;;0.00;0.00;;;;;;;-1.33;76.88;102141.31;5070397;28;20195;-72
2021/03/06 05:14:40;;;;;;;0.20;0.20;;;;;;;-1.28;77.18;102138.91;5069141;28;20183;-73
2021/03/06 05:17:05;;;;;;;1.47;0.77;;;;;;;-1.28;77.56;102148.81;5070157;28;20192;-73
2021/03/06 05:19:31;;;;;;;7.87;3.40;;;;;;;-1.33;77.63;102152.03;5070315;28;20241;-72
2021/03/06 05:21:56;;;;;;;0.30;0.27;;;;;;;-1.26;77.95;102155.63;5070413;28;20254;-73
2021/03/06 05:24:21;;;;;;;0.10;0.10;;;;;;;-1.25;77.84;102159.13;5071323;28;20579;-73
2021/03/06 05:26:48;;;;;;;0.00;0.00;;;;;;;-1.24;78.25;102158.94;5073078;28;20202;-73
2021/03/06 05:29:13;;;;;;;2.37;1.60;;;;;;;-1.21;77.68;102145.16;5072249;28;20258;-73
2021/03/06 05:31:38;;;;;;;0.10;0.10;;;;;;;-1.21;77.98;102155.88;5070506;28;20550;-73
2021/03/06 05:34:04;;;;;;;0.30;0.30;;;;;;;-1.29;77.90;102155.19;5070251;28;20187;-73
2021/03/06 05:36:29;;;;;;;0.10;0.10;;;;;;;-1.28;78.15;102159.53;5070015;28;20183;-73
2021/03/06 05:38:54;;;;;;;0.20;0.20;;;;;;;-1.30;78.67;102173.13;5070004;28;20235;-73
2021/03/06 05:41:20;;;;;;;0.00;0.00;;;;;;;-1.26;77.93;102158.31;5068652;28;20336;-73
2021/03/06 05:43:45;;;;;;;0.20;0.20;;;;;;;-1.29;78.02;102164.06;5070141;28;20170;-73
2021/03/06 05:46:14;;;;;;;0.00;0.00;;;;;;;-1.34;78.49;102155.72;5069736;28;20790;-73
2021/03/06 05:48:40;;;;;;;3.13;2.93;;;;;;;-1.25;78.06;102154.59;5073238;28;20430;-72
2021/03/06 05:51:06;;;;;;;0.20;0.20;;;;;;;-1.24;77.85;102142.84;5073944;28;20505;-73
2021/03/06 05:53:32;;;;;;;0.27;0.27;;;;;;;-1.26;77.40;102152.94;5073659;28;20650;-72
2021/03/06 05:55:59;;;;;;;0.33;0.33;;;;;;;-1.24;78.07;102153.59;5072366;28;20486;-73
2021/03/06 05:58:27;;;;;;;0.10;0.03;;;;;;;-1.23;77.52;102151.72;5073125;28;20468;-73
2021/03/06 06:00:54;;;;;;;0.23;0.23;;;;;;;-1.18;77.74;102149.28;5073323;28;20417;-72
2021/03/06 06:03:21;;;;;;;0.00;0.00;;;;;;;-1.19;78.06;102142.28;5073533;28;20813;-72
2021/03/06 06:05:47;;;;;;;1.90;1.17;;;;;;;-1.18;78.01;102149.28;5073369;28;20421;-73
2021/03/06 06:08:14;;;;;;;0.23;0.23;;;;;;;-1.20;77.76;102145.97;5073058;28;20420;-73
2021/03/06 06:10:39;;;;;;;0.73;0.73;;;;;;;-1.20;78.08;102146.81;5073222;28;20185;-72
2021/03/06 06:13:04;;;;;;;0.20;0.20;;;;;;;-1.17;77.49;102150.94;5073602;28;20425;-73
2021/03/06 06:15:30;;;;;;;0.20;0.10;;;;;;;-1.16;77.67;102151.78;5072108;28;20245;-72
2021/03/06 06:17:55;;;;;;;0.23;0.10;;;;;;;-1.10;77.29;102151.03;5072892;28;20285;-72
2021/03/06 06:20:22;;;;;;;0.10;0.10;;;;;;;-1.14;77.59;102158.63;5073025;28;20198;-73
2021/03/06 06:23:06;;;;;;;0.33;0.33;;;;;;;-1.10;77.55;102157.22;5072915;28;20179;-73
2021/03/06 06:25:32;;;;;;;0.00;0.00;;;;;;;-1.08;77.61;102162.38;5073076;28;20746;-73
2021/03/06 06:28:02;;;;;;;0.77;0.77;;;;;;;-1.08;77.45;102168.59;5071198;28;20443;-73
2021/03/06 06:30:28;;;;;;;0.60;0.60;;;;;;;-1.08;77.55;102163.22;5073145;28;20474;-72
2021/03/06 06:32:53;;;;;;;0.30;0.30;;;;;;;-1.07;76.98;102164.03;5072838;28;20424;-72
2021/03/06 06:35:18;;;;;;;10.23;2.63;;;;;;;-1.05;76.64;102160.16;5072935;28;20323;-73
2021/03/06 06:38:02;;;;;;;0.00;0.00;;;;;;;-1.04;76.98;102160.97;5071070;28;20279;-73
2021/03/06 06:40:33;;;;;;;0.77;0.77;;;;;;;-1.01;77.23;102168.66;5072728;28;20175;-72
2021/03/06 06:42:59;;;;;;;0.67;0.67;;;;;;;-0.91;76.70;102174.50;5072516;28;20486;-72
2021/03/06 06:45:35;;;;;;;0.33;0.33;;;;;;;-0.89;76.82;102180.50;5072470;28;20881;-77
2021/03/06 06:48:08;;;;;;;0.83;0.83;;;;;;;-0.81;76.95;102169.66;5072207;28;20518;-80
2021/03/06 06:50:33;;;;;;;9.97;2.43;;;;;;;-0.78;76.89;102181.84;5072777;28;20412;-72
2021/03/06 06:52:59;;;;;;;1.00;0.50;;;;;;;-0.75;76.01;102171.56;5072422;28;20413;-72
2021/03/06 06:55:43;;;;;;;0.63;0.63;;;;;;;-0.74;76.30;102181.25;5072480;28;20171;-72
2021/03/06 06:58:09;;;;;;;3.33;1.57;;;;;;;-0.74;76.29;102173.22;5071832;28;20194;-72
2021/03/06 07:00:35;;;;;;;0.40;0.40;;;;;;;-0.68;76.36;102177.81;5072418;28;20424;-73
2021/03/06 07:03:02;;;;;;;0.27;0.27;;;;;;;-0.64;76.18;102168.34;5072295;28;20249;-73
2021/03/06 07:05:31;;;;;;;0.00;0.00;;;;;;;-0.56;76.52;102177.28;5072192;28;20439;-73
2021/03/06 07:07:59;;;;;;;0.10;0.10;;;;;;;-0.49;76.00;102179.00;5071886;28;20417;-73
2021/03/06 07:10:31;;;;;;;0.20;0.20;;;;;;;-0.43;75.76;102174.72;5072174;28;20405;-73
2021/03/06 07:13:02;;;;;;;2.47;0.60;;;;;;;-0.36;76.49;102172.88;5072056;28;20424;-73
2021/03/06 07:15:29;;;;;;;0.20;0.20;;;;;;;-0.33;75.32;102177.84;5072048;28;20413;-73
2021/03/06 07:17:56;;;;;;;1.03;0.67;;;;;;;-0.33;76.15;102167.13;5070371;28;20451;-72
2021/03/06 07:20:22;;;;;;;1.13;1.13;;;;;;;-0.35;76.25;102174.53;5072306;28;20409;-72
2021/03/06 07:22:52;;;;;;;0.57;0.57;;;;;;;-0.35;76.01;102171.84;5072122;28;20428;-72
2021/03/06 07:25:20;;;;;;;2.83;2.30;;;;;;;-0.27;75.98;102171.72;5072216;28;20296;-72
2021/03/06 07:27:46;;;;;;;0.00;0.00;;;;;;;-0.17;75.39;102174.84;5071524;28;20470;-74
2021/03/06 07:30:14;;;;;;;2.30;2.20;;;;;;;-0.05;75.31;102173.28;5071678;28;20409;-74
2021/03/06 07:32:41;;;;;;;0.77;0.77;;;;;;;0.09;74.90;102173.34;5071726;28;20574;-74
2021/03/06 07:35:09;;;;;;;0.00;0.00;;;;;;;0.22;74.30;102179.63;5071860;28;20416;-74
2021/03/06 07:37:36;;;;;;;0.90;0.90;;;;;;;0.37;73.97;102178.66;5071276;28;20414;-73
2021/03/06 07:40:04;;;;;;;1.87;1.80;;;;;;;0.48;73.11;102173.53;5071731;28;20440;-74
2021/03/06 07:42:47;;;;;;;0.27;0.27;;;;;;;0.55;73.10;102171.66;5071211;28;20421;-74
2021/03/06 07:45:19;;;;;;;2.00;1.10;;;;;;;0.62;72.75;102166.31;5071473;28;20771;-73
2021/03/06 07:47:47;;;;;;;1.60;1.60;;;;;;;0.67;72.33;102171.09;5071251;28;20772;-74
2021/03/06 07:50:24;;;;;;;0.33;0.33;;;;;;;0.73;72.01;102167.59;5069979;28;20413;-74
2021/03/06 07:52:49;;;;;;;1.37;1.20;;;;;;;0.74;71.80;102180.84;5071277;28;20496;-73
2021/03/06 07:55:16;;;;;;;0.40;0.23;;;;;;;0.80;72.48;102184.56;5071311;28;20626;-74
2021/03/06 07:58:04;;;;;;;0.00;0.00;;;;;;;0.82;72.47;102188.72;5071183;28;20206;-74
2021/03/06 08:00:41;;;;;;;0.03;0.03;;;;;;;0.83;72.76;102194.91;5071376;28;20863;-74
2021/03/06 08:03:26;;;;;;;0.50;0.37;;;;;;;0.85;72.57;102198.22;5071204;28;20416;-73
2021/03/06 08:05:57;;;;;;;0.23;0.23;;;;;;;0.84;73.03;102210.03;5071146;28;20415;-73
2021/03/06 08:08:35;;;;;;;3.93;0.50;;;;;;;0.88;72.90;102211.28;5070956;28;20470;-69
2021/03/06 08:11:13;;;;;;;0.00;0.00;;;;;;;0.98;73.13;102214.41;5070763;28;20424;-75
2021/03/06 08:13:45;;;;;;;0.00;0.00;;;;;;;1.00;73.37;102212.31;5071106;28;20917;-74
2021/03/06 08:18:48;;;;;;;0.23;0.23;;;;;;;0.96;72.35;102213.78;5071002;28;20468;-75
2021/03/06 08:21:32;;;;;;;0.77;0.77;;;;;;;0.90;72.46;102217.28;5071057;28;20489;-74
2021/03/06 08:26:52;;;;;;;0.00;0.00;;;;;;;0.99;72.79;102215.22;5070468;28;20409;-74
2021/03/06 08:29:24;;;;;;;0.30;0.30;;;;;;;0.97;72.56;102220.81;5070820;28;20424;-74
2021/03/06 08:32:15;;;;;;;0.30;0.30;;;;;;;1.00;72.40;102220.41;5070943;28;20401;-74
2021/03/06 08:34:40;;;;;;;0.83;0.83;;;;;;;1.02;73.33;102217.53;5070568;28;20416;-75
2021/03/06 08:40:05;;;;;;;0.60;0.60;;;;;;;1.06;72.78;102218.78;5071190;28;20306;-75
2021/03/06 08:42:32;;;;;;;0.47;0.40;;;;;;;1.05;73.14;102217.13;5070556;28;20458;-75
2021/03/06 08:45:05;;;;;;;0.23;0.23;;;;;;;0.92;73.02;102214.41;5070464;28;20927;-74
2021/03/06 08:47:39;;;;;;;0.20;0.20;;;;;;;0.84;74.03;102215.41;5070379;28;20452;-75
2021/03/06 08:50:11;;;;;;;0.33;0.33;;;;;;;0.90;74.51;102217.28;5070753;28;20927;-75
2021/03/06 08:52:38;;;;;;;0.30;0.30;;;;;;;1.09;73.72;102227.25;5070554;28;20496;-75
2021/03/06 08:55:05;;;;;;;0.70;0.60;;;;;;;1.23;73.78;102221.91;5069414;28;20501;-74
2021/03/06 08:57:38;;;;;;;0.07;0.07;;;;;;;1.37;73.25;102220.88;5070327;28;20421;-75
2021/03/06 09:00:09;;;;;;;0.37;0.37;;;;;;;1.44;73.41;102216.31;5070631;28;20421;-74
2021/03/06 09:02:35;;;;;;;0.30;0.30;;;;;;;1.36;72.68;102221.91;5070579;28;20584;-75
2021/03/06 09:05:10;;;;;;;0.43;0.37;;;;;;;1.28;73.61;102228.31;5070522;28;20428;-76
2021/03/06 09:07:42;;;;;;;0.23;0.13;;;;;;;1.24;74.05;102228.94;5070240;28;20213;-76
2021/03/06 09:10:36;;;;;;;0.83;0.83;;;;;;;1.30;73.84;102228.09;5070329;28;20432;-75
2021/03/06 09:13:12;;;;;;;0.47;0.30;;;;;;;1.38;73.44;102227.91;5070552;28;20405;-75
2021/03/06 09:15:42;;;;;;;0.07;0.07;;;;;;;1.56;72.95;102225.44;5070541;28;20405;-76
2021/03/06 09:18:11;;;;;;;0.20;0.20;;;;;;;1.62;72.28;102231.88;5070025;28;20460;-75
2021/03/06 09:21:03;;;;;;;0.13;0.03;;;;;;;1.77;71.86;102222.53;5070733;28;20456;-75
2021/03/06 09:23:34;;;;;;;0.37;0.37;;;;;;;1.92;71.25;102232.25;5056673;28;20625;-75
2021/03/06 09:26:14;;;;;;;0.43;0.43;;;;;;;1.94;71.15;102232.88;5072973;28;20421;-82
2021/03/06 09:28:40;;;;;;;0.10;0.10;;;;;;;1.92;71.19;102241.16;5073920;28;20435;-79
2021/03/06 09:31:14;;;;;;;9.53;0.60;;;;;;;1.93;72.05;102242.81;5072677;28;20428;-77
2021/03/06 09:33:41;;;;;;;0.23;0.23;;;;;;;1.90;71.55;102245.94;5072536;28;20174;-78
2021/03/06 09:36:13;;;;;;;0.10;0.10;;;;;;;1.85;71.08;102239.50;5073539;28;20413;-79
2021/03/06 09:38:45;;;;;;;0.13;0.13;;;;;;;1.86;71.40;102241.16;5073921;28;20478;-78
2021/03/06 09:41:12;;;;;;;0.00;0.00;;;;;;;1.86;71.69;102246.53;5073827;28;20428;-75
2021/03/06 09:43:38;;;;;;;0.57;0.57;;;;;;;1.96;71.71;102238.88;5073509;28;20428;-75
2021/03/06 09:46:15;;;;;;;0.63;0.60;;;;;;;2.09;71.28;102234.28;5073386;28;20543;-79
2021/03/06 09:48:54;;;;;;;1.10;1.10;;;;;;;2.08;71.50;102240.72;5073676;28;20419;-75
2021/03/06 09:51:21;;;;;;;0.17;0.10;;;;;;;2.07;71.14;102230.97;5073629;28;20419;-77
2021/03/06 09:54:04;;;;;;;0.07;0.07;;;;;;;2.19;70.91;102231.16;5074274;28;20474;-75
2021/03/06 09:56:30;;;;;;;0.20;0.20;;;;;;;2.20;71.01;102235.50;5073318;28;20459;-75
2021/03/06 09:59:04;;;;;;;0.00;0.00;;;;;;;2.22;71.21;102230.72;5073376;28;20514;-74
2021/03/06 10:01:31;;;;;;;0.13;0.13;;;;;;;2.33;71.50;102231.94;5073463;28;20186;-75
2021/03/06 10:03:57;;;;;;;1.67;1.57;;;;;;;2.35;71.21;102219.06;5073287;28;20779;-74
2021/03/06 10:06:25;;;;;;;0.00;0.00;;;;;;;2.53;70.87;102226.47;5072884;28;20417;-75
2021/03/06 10:08:54;;;;;;;0.30;0.30;;;;;;;2.67;69.98;102222.66;5073349;28;20202;-75
2021/03/06 10:11:26;;;;;;;0.00;0.00;;;;;;;2.96;69.75;102216.69;5073496;28;20455;-75
2021/03/06 10:13:52;;;;;;;0.10;0.10;;;;;;;3.09;68.75;102223.06;5073243;28;20178;-75
2021/03/06 10:16:18;;;;;;;0.00;0.00;;;;;;;3.27;68.63;102228.53;5072564;28;20179;-75
2021/03/06 10:18:44;;;;;;;0.93;0.93;;;;;;;3.27;67.17;102239.34;5072747;28;20444;-76
2021/03/06 10:21:16;;;;;;;0.10;0.10;;;;;;;3.44;67.45;102240.47;5073297;28;20170;-75
2021/03/06 10:23:41;;;;;;;0.40;0.40;;;;;;;3.56;66.28;102238.69;5072825;28;20167;-76
2021/03/06 10:26:22;;;;;;;0.40;0.40;;;;;;;3.52;67.01;102248.31;5072688;28;20173;-75
2021/03/06 10:28:49;;;;;;;0.00;0.00;;;;;;;3.38;67.66;102240.53;5072692;28;20170;-76
2021/03/06 10:31:56;;;;;;;0.30;0.30;;;;;;;3.52;68.16;102242.91;5072888;28;20214;-76
2021/03/06 10:34:25;;;;;;;0.73;0.57;;;;;;;3.56;67.30;102237.88;5028704;28;20188;-74
2021/03/06 10:37:13;;;;;;;1.43;1.10;;;;;;;3.74;67.33;102245.19;5061372;28;20202;-75
2021/03/06 10:40:04;;;;;;;0.60;0.40;;;;;;;3.72;66.99;102241.91;5069197;28;20198;-76
2021/03/06 10:42:47;;;;;;;0.60;0.60;;;;;;;3.65;68.38;102243.84;5071968;28;20198;-76
2021/03/06 10:45:29;;;;;;;0.73;0.73;;;;;;;3.46;71.48;102248.34;5071247;28;20606;-76
2021/03/06 10:47:57;;;;;;;0.20;0.20;;;;;;;3.34;73.09;102248.25;5070946;28;20213;-75
2021/03/06 10:50:39;;;;;;;0.20;0.20;;;;;;;3.36;74.37;102253.44;5071959;28;20663;-76
2021/03/06 10:53:19;;;;;;;1.30;0.47;;;;;;;3.39;74.23;102248.41;5072521;28;20158;-75
2021/03/06 10:55:46;;;;;;;0.30;0.30;;;;;;;3.42;73.96;102250.66;5072764;28;20175;-75
2021/03/06 10:58:13;;;;;;;0.57;0.57;;;;;;;3.49;73.84;102237.94;5070993;28;20217;-76
2021/03/06 11:00:40;;;;;;;0.40;0.40;;;;;;;3.43;73.86;102251.50;5072885;28;20202;-76
2021/03/06 11:03:08;;;;;;;1.27;0.57;;;;;;;3.45;72.54;102244.81;5072191;28;20170;-76
2021/03/06 11:05:34;;;;;;;0.20;0.20;;;;;;;3.42;72.87;102241.72;5072807;28;20222;-76
2021/03/06 11:08:21;;;;;;;0.20;0.20;;;;;;;3.55;71.85;102234.34;5070931;28;20796;-77
2021/03/06 11:10:49;;;;;;;4.67;0.57;;;;;;;3.69;72.11;102240.47;5071324;28;20175;-77
2021/03/06 11:13:15;;;;;;;0.10;0.10;;;;;;;3.67;69.79;102226.34;5072259;28;20848;-75
2021/03/06 11:15:52;;;;;;;0.47;0.47;;;;;;;3.60;69.65;102225.56;5072326;28;20257;-76
2021/03/06 11:18:19;;;;;;;0.10;0.10;;;;;;;3.72;70.20;102222.97;5072034;28;20190;-76
2021/03/06 11:20:44;;;;;;;0.10;0.10;;;;;;;3.93;68.74;102213.66;5072263;28;20210;-76
2021/03/06 11:23:09;;;;;;;0.00;0.00;;;;;;;4.02;68.80;102215.81;5072296;28;20268;-76
2021/03/06 11:25:36;;;;;;;0.50;0.50;;;;;;;4.25;68.91;102204.34;5072190;28;20178;-76
2021/03/06 11:28:06;;;;;;;0.47;0.47;;;;;;;4.33;66.25;102204.03;5071839;28;20179;-77
2021/03/06 11:30:34;;;;;;;0.20;0.20;;;;;;;4.50;65.59;102206.13;5072068;28;20195;-77
2021/03/06 11:33:02;;;;;;;0.50;0.50;;;;;;;4.40;66.69;102214.78;5071741;28;20179;-76
2021/03/06 11:35:27;;;;;;;0.20;0.20;;;;;;;4.45;65.69;102220.31;5071918;28;20522;-77
2021/03/06 11:37:53;;;;;;;0.93;0.93;;;;;;;4.45;64.94;102214.91;5070764;28;20251;-76
2021/03/06 11:40:23;;;;;;;0.20;0.20;;;;;;;4.53;65.85;102209.22;5071408;28;20206;-77
2021/03/06 11:42:49;;;;;;;1.63;0.63;;;;;;;4.62;65.58;102215.94;5072616;28;20202;-77
2021/03/06 11:45:17;;;;;;;0.47;0.47;;;;;;;4.59;64.78;102210.16;5071530;28;20175;-77
2021/03/06 11:47:42;;;;;;;0.40;0.40;;;;;;;4.47;65.21;102207.41;5070895;28;20665;-75